Time;durP1;ratioP1;P1;durP2;ratioP2;P2;SDS_P1;SDS_P2;PMS_P1;PMS_P2;Temp;Humidity;BMP_temperature;BMP_pressure;BME280_temperature;BME280_humidity;BME280_pressure;Samples;Min_cycle;Max_cycle;Signal;HPM_P1;HPM_P2
2021/12/22 00:01:38;;;;;;;10.23;7.50;;;8.00;69.60;;;;;;4959435;28;20043;-82
2021/12/22 00:04:04;;;;;;;9.38;7.10;;;8.00;69.60;;;;;;4959786;28;20517;-81
2021/12/22 00:06:32;;;;;;;9.38;7.68;;;8.10;69.50;;;;;;4959179;28;20034;-81
2021/12/22 00:08:59;;;;;;;10.68;7.95;;;8.00;69.70;;;;;;4957991;28;20472;-81
2021/12/22 00:11:26;;;;;;;9.07;7.38;;;8.00;69.90;;;;;;4965740;28;20375;-81
2021/12/22 00:13:52;;;;;;;9.57;7.15;;;7.90;70.10;;;;;;4965648;28;20047;-82
2021/12/22 00:16:18;;;;;;;10.77;8.13;;;8.00;70.30;;;;;;4965537;28;20490;-81
2021/12/22 00:18:44;;;;;;;9.30;7.28;;;8.00;70.30;;;;;;4968865;28;20047;-82
2021/12/22 00:21:10;;;;;;;11.07;8.32;;;8.00;70.60;;;;;;4966589;28;20051;-81
2021/12/22 00:23:36;;;;;;;16.20;11.48;;;8.00;70.10;;;;;;4970900;28;20043;-81
2021/12/22 00:26:03;;;;;;;11.02;8.73;;;7.60;70.40;;;;;;4942465;28;20043;-81
2021/12/22 00:28:29;;;;;;;11.25;8.23;;;7.60;71.10;;;;;;4969595;28;20045;-81
2021/12/22 00:30:55;;;;;;;10.73;8.35;;;7.50;71.20;;;;;;4973246;28;20034;-81
2021/12/22 00:33:21;;;;;;;10.77;7.72;;;7.50;71.20;;;;;;4960745;28;20098;-81
2021/12/22 00:35:47;;;;;;;11.15;8.45;;;7.60;71.20;;;;;;4972346;28;20035;-81
2021/12/22 00:38:16;;;;;;;8.77;7.35;;;7.60;71.10;;;;;;4969707;28;20034;-82
2021/12/22 00:40:43;;;;;;;10.65;8.05;;;7.70;70.90;;;;;;4969655;28;20381;-81
2021/12/22 00:43:09;;;;;;;10.48;8.32;;;7.70;70.70;;;;;;4959851;28;20077;-81
2021/12/22 00:45:36;;;;;;;9.90;8.38;;;7.80;70.80;;;;;;4957819;28;20023;-82
2021/12/22 00:48:04;;;;;;;9.32;7.70;;;7.80;70.70;;;;;;4951104;28;20035;-82
2021/12/22 00:50:30;;;;;;;11.35;7.82;;;7.80;70.40;;;;;;4961773;28;20106;-82
2021/12/22 00:52:56;;;;;;;10.40;8.13;;;7.90;70.30;;;;;;4953989;28;20369;-82
2021/12/22 00:55:22;;;;;;;11.57;7.95;;;7.90;70.30;;;;;;4961592;28;20086;-82
2021/12/22 00:57:49;;;;;;;10.85;8.48;;;7.90;70.40;;;;;;4971841;28;20039;-82
2021/12/22 01:00:17;;;;;;;11.63;8.80;;;7.90;69.90;;;;;;4971959;28;20030;-82
2021/12/22 01:02:43;;;;;;;10.98;8.45;;;7.90;70.30;;;;;;4969977;28;20086;-82
2021/12/22 01:05:12;;;;;;;10.57;8.40;;;7.90;70.30;;;;;;4963996;28;20122;-82
2021/12/22 01:07:38;;;;;;;11.38;8.93;;;8.00;70.10;;;;;;4969702;28;20101;-82
2021/12/22 01:10:05;;;;;;;13.45;9.05;;;7.90;69.50;;;;;;4943197;29;20043;-82
2021/12/22 01:12:31;;;;;;;11.88;8.55;;;8.00;69.30;;;;;;4939986;29;20412;-82
2021/12/22 01:14:57;;;;;;;12.43;8.93;;;8.00;69.30;;;;;;4963429;28;20035;-82
2021/12/22 01:17:22;;;;;;;14.63;10.35;;;7.90;69.00;;;;;;4954561;28;20082;-82
2021/12/22 01:20:07;;;;;;;12.23;10.02;;;7.90;69.00;;;;;;4949996;28;20035;-82
2021/12/22 01:22:47;;;;;;;12.98;9.45;;;7.70;68.90;;;;;;4942794;28;20038;-83
2021/12/22 01:25:16;;;;;;;10.50;8.63;;;7.50;69.80;;;;;;4960287;28;20039;-82
2021/12/22 01:27:43;;;;;;;13.05;9.95;;;7.50;70.00;;;;;;4969675;28;20352;-82
2021/12/22 01:30:12;;;;;;;16.25;11.63;;;7.30;70.10;;;;;;4968746;28;20023;-83
2021/12/22 01:32:37;;;;;;;14.65;11.23;;;7.30;69.90;;;;;;4951679;28;20053;-82
2021/12/22 01:35:06;;;;;;;12.73;9.52;;;6.90;70.50;;;;;;4968363;28;20113;-82
2021/12/22 01:37:32;;;;;;;10.98;8.43;;;7.00;71.00;;;;;;4947157;28;20118;-82
2021/12/22 01:40:00;;;;;;;11.25;9.15;;;7.00;70.90;;;;;;4963632;28;20083;-83
2021/12/22 01:42:26;;;;;;;13.27;10.07;;;7.00;70.80;;;;;;4964674;28;20034;-83
2021/12/22 01:50:28;;;;;;;14.45;10.60;;;6.90;70.20;;;;;;4958506;28;20371;-82
2021/12/22 01:52:54;;;;;;;11.65;9.27;;;6.90;70.10;;;;;;4938621;29;20055;-83
2021/12/22 01:55:33;;;;;;;17.90;12.32;;;6.90;70.50;;;;;;4970174;28;20044;-83
2021/12/22 01:58:01;;;;;;;11.93;10.07;;;6.70;70.20;;;;;;4958830;28;20492;-82
2021/12/22 02:00:28;;;;;;;13.15;9.20;;;6.50;70.90;;;;;;4965224;28;20041;-83
2021/12/22 02:02:55;;;;;;;14.52;9.85;;;6.60;71.00;;;;;;4961221;28;20082;-82
2021/12/22 02:05:21;;;;;;;15.57;10.68;;;6.60;70.80;;;;;;4939830;28;20052;-82
2021/12/22 02:07:49;;;;;;;15.40;9.82;;;6.60;70.90;;;;;;4955966;28;20079;-82
2021/12/22 02:10:36;;;;;;;16.42;12.05;;;6.80;70.70;;;;;;4955393;28;20031;-82
2021/12/22 02:13:03;;;;;;;11.90;9.55;;;6.50;70.50;;;;;;4951755;28;20468;-82
2021/12/22 02:15:33;;;;;;;13.77;9.63;;;6.50;71.10;;;;;;4969885;28;20050;-82
2021/12/22 02:18:02;;;;;;;21.40;14.48;;;6.40;71.10;;;;;;4961507;28;20047;-82
2021/12/22 02:20:28;;;;;;;13.13;9.90;;;6.30;71.20;;;;;;4930310;29;20041;-79
2021/12/22 02:22:58;;;;;;;18.05;14.10;;;6.20;72.00;;;;;;4938625;28;20420;-79
2021/12/22 02:25:33;;;;;;;17.08;11.57;;;6.30;72.00;;;;;;4953520;28;20046;-80
2021/12/22 02:28:01;;;;;;;14.85;10.23;;;6.20;72.20;;;;;;4955485;28;20504;-80
2021/12/22 02:30:29;;;;;;;16.60;11.35;;;6.30;72.00;;;;;;4959038;28;20042;-80
2021/12/22 02:35:39;;;;;;;19.58;14.73;;;6.20;72.10;;;;;;4959992;28;20062;-81
2021/12/22 02:38:12;;;;;;;14.60;10.43;;;6.30;72.00;;;;;;4945308;28;20126;-81
2021/12/22 02:40:38;;;;;;;18.10;13.90;;;6.20;72.50;;;;;;4955479;28;20063;-82
2021/12/22 02:43:05;;;;;;;17.08;12.98;;;6.30;71.70;;;;;;4959035;28;20051;-82
2021/12/22 02:45:33;;;;;;;15.02;11.20;;;6.10;72.70;;;;;;4952670;28;20030;-81
2021/12/22 02:48:00;;;;;;;16.33;12.63;;;6.20;72.50;;;;;;4958615;28;20510;-82
2021/12/22 02:50:26;;;;;;;18.30;13.25;;;6.30;72.10;;;;;;4969057;28;20479;-81
2021/12/22 02:53:11;;;;;;;19.33;13.18;;;6.10;72.30;;;;;;4961515;28;20167;-81
2021/12/22 02:55:47;;;;;;;19.15;14.35;;;6.10;72.60;;;;;;4968299;28;20027;-81
2021/12/22 02:58:26;;;;;;;15.18;10.88;;;6.10;72.40;;;;;;4952379;28;20048;-82
2021/12/22 03:06:23;;;;;;;14.07;10.45;;;6.00;72.70;;;;;;4960185;28;20122;-81
2021/12/22 03:08:50;;;;;;;16.95;12.93;;;5.90;73.30;;;;;;4948084;28;20046;-82
2021/12/22 03:11:15;;;;;;;18.98;13.93;;;5.80;73.40;;;;;;4957628;28;20054;-80
2021/12/22 03:13:41;;;;;;;18.05;10.52;;;5.60;73.90;;;;;;4950645;28;20043;-81
2021/12/22 03:16:07;;;;;;;17.25;12.75;;;5.70;74.00;;;;;;4962580;28;20059;-81
2021/12/22 03:18:34;;;;;;;18.88;11.10;;;5.80;73.60;;;;;;4964737;28;20031;-80
2021/12/22 03:21:11;;;;;;;15.40;10.98;;;5.80;73.60;;;;;;4959510;28;20043;-80
2021/12/22 03:23:37;;;;;;;17.27;12.45;;;5.90;73.40;;;;;;4956152;28;20039;-79
2021/12/22 03:26:03;;;;;;;14.95;11.00;;;6.00;73.00;;;;;;4960139;28;20046;-79
2021/12/22 03:28:30;;;;;;;15.98;11.13;;;6.00;72.80;;;;;;4968413;28;20082;-79
2021/12/22 03:30:58;;;;;;;16.50;11.52;;;5.80;73.10;;;;;;4969697;28;20391;-80
2021/12/22 03:33:24;;;;;;;14.32;8.98;;;6.00;73.20;;;;;;4959546;28;20134;-82
2021/12/22 03:35:49;;;;;;;18.48;12.10;;;6.00;72.70;;;;;;4949670;28;20130;-81
2021/12/22 03:38:15;;;;;;;13.55;10.45;;;5.90;72.70;;;;;;4953578;28;20050;-80
2021/12/22 03:40:41;;;;;;;17.77;12.18;;;5.90;72.80;;;;;;4961200;28;20046;-81
2021/12/22 03:43:07;;;;;;;15.27;11.48;;;5.80;72.60;;;;;;4954915;28;20102;-81
2021/12/22 03:45:32;;;;;;;19.42;12.57;;;5.70;73.10;;;;;;4958941;28;20043;-81
2021/12/22 03:47:58;;;;;;;16.83;11.65;;;5.90;73.00;;;;;;4962367;28;20038;-82
2021/12/22 03:50:24;;;;;;;12.40;9.02;;;5.80;72.80;;;;;;4973028;28;20070;-83
2021/12/22 03:52:50;;;;;;;15.70;11.32;;;5.90;72.70;;;;;;4962833;28;20035;-82
2021/12/22 03:55:15;;;;;;;12.60;9.73;;;5.80;72.20;;;;;;4968030;28;20567;-83
2021/12/22 03:57:41;;;;;;;13.88;9.98;;;5.90;72.50;;;;;;4973600;28;20412;-82
2021/12/22 04:00:10;;;;;;;11.52;9.38;;;6.00;71.60;;;;;;4973042;28;20122;-82
2021/12/22 04:02:36;;;;;;;12.23;8.32;;;6.10;71.70;;;;;;4969373;28;20035;-82
2021/12/22 04:05:03;;;;;;;17.23;10.73;;;6.30;71.60;;;;;;4971898;28;20546;-81
2021/12/22 04:07:29;;;;;;;15.60;11.27;;;6.30;70.50;;;;;;4942614;28;20054;-81
2021/12/22 04:09:54;;;;;;;16.63;11.23;;;6.10;70.90;;;;;;4966758;28;20121;-81
2021/12/22 04:12:20;;;;;;;16.73;10.90;;;6.00;70.90;;;;;;4968175;28;20102;-81
2021/12/22 04:14:46;;;;;;;16.75;10.55;;;6.00;71.10;;;;;;4958767;28;20083;-80
2021/12/22 04:17:11;;;;;;;11.55;8.73;;;5.90;71.30;;;;;;4966077;28;20043;-80
2021/12/22 04:19:37;;;;;;;15.82;10.88;;;5.90;72.20;;;;;;4961231;28;20057;-80
2021/12/22 04:22:04;;;;;;;14.45;10.45;;;6.00;71.50;;;;;;4949521;28;20031;-80
2021/12/22 04:24:31;;;;;;;12.20;8.65;;;6.00;71.10;;;;;;4964490;28;20186;-80
2021/12/22 04:26:56;;;;;;;11.65;9.52;;;6.10;71.10;;;;;;4942973;28;20443;-81
2021/12/22 04:29:22;;;;;;;13.63;8.93;;;6.20;71.40;;;;;;4968004;28;20067;-81
2021/12/22 04:31:48;;;;;;;11.52;8.27;;;6.10;70.90;;;;;;4940267;29;20039;-81
2021/12/22 04:34:14;;;;;;;11.50;7.90;;;6.20;71.10;;;;;;4960944;28;21825;-83
2021/12/22 04:36:40;;;;;;;14.98;8.93;;;6.30;71.00;;;;;;4957193;28;20054;-77
2021/12/22 04:39:08;;;;;;;9.82;7.90;;;6.20;70.60;;;;;;4971372;28;20121;-77
2021/12/22 04:41:34;;;;;;;14.18;9.82;;;6.30;70.90;;;;;;4964094;28;20031;-77
2021/12/22 04:44:00;;;;;;;13.70;9.20;;;6.30;70.60;;;;;;4973503;28;20047;-76
2021/12/22 04:46:26;;;;;;;15.05;9.05;;;6.20;70.40;;;;;;4964044;28;20038;-77
2021/12/22 04:48:52;;;;;;;11.77;8.82;;;6.30;70.80;;;;;;4957442;28;20130;-76
2021/12/22 04:51:27;;;;;;;13.52;8.07;;;6.40;70.30;;;;;;4953457;28;20042;-77
2021/12/22 04:54:47;;;;;;;16.95;10.27;;;6.40;70.20;;;;;;4956540;28;20499;-77
2021/12/22 04:56:42;;;;;;;12.57;8.30;;;6.30;70.40;;;;;;4948687;28;20035;-77
2021/12/22 04:59:09;;;;;;;9.85;7.40;;;6.40;70.40;;;;;;4956558;28;20046;-77
2021/12/22 05:01:34;;;;;;;9.88;7.22;;;6.40;70.20;;;;;;4956790;28;20047;-76
2021/12/22 05:04:00;;;;;;;12.07;8.75;;;6.50;70.20;;;;;;4955826;28;20051;-77
2021/12/22 05:06:26;;;;;;;11.10;7.82;;;6.40;69.50;;;;;;4956517;28;20038;-76
2021/12/22 05:08:52;;;;;;;10.10;7.45;;;6.40;70.20;;;;;;4956525;28;20067;-76
2021/12/22 05:11:18;;;;;;;12.40;8.38;;;6.50;69.80;;;;;;4956274;28;20135;-76
2021/12/22 05:13:43;;;;;;;9.32;6.63;;;6.40;69.60;;;;;;4956563;28;20046;-75
2021/12/22 05:16:16;;;;;;;8.98;6.45;;;6.50;70.00;;;;;;4953052;28;20035;-77
2021/12/22 05:18:51;;;;;;;11.52;7.28;;;6.60;69.80;;;;;;4953003;28;20039;-77
2021/12/22 05:21:21;;;;;;;12.48;7.57;;;6.70;69.70;;;;;;4956299;28;20173;-76
2021/12/22 05:23:53;;;;;;;8.18;6.93;;;6.90;69.70;;;;;;4955754;28;20035;-77
2021/12/22 05:26:20;;;;;;;9.40;7.32;;;6.90;69.40;;;;;;4954397;28;20050;-77
2021/12/22 05:28:46;;;;;;;11.20;7.45;;;7.00;69.30;;;;;;4970978;28;20051;-88
2021/12/22 05:31:12;;;;;;;9.75;7.22;;;7.10;69.40;;;;;;4968422;28;20035;-82
2021/12/22 05:33:38;;;;;;;10.43;7.65;;;7.20;69.00;;;;;;4968891;28;20045;-81
2021/12/22 05:36:04;;;;;;;14.40;9.93;;;7.20;68.50;;;;;;4968117;28;20046;-81
2021/12/22 05:38:30;;;;;;;12.07;8.82;;;7.10;67.10;;;;;;4969292;28;20388;-81
2021/12/22 05:40:56;;;;;;;13.65;9.60;;;6.90;67.80;;;;;;4958746;28;20044;-81
2021/12/22 05:43:22;;;;;;;9.82;7.10;;;6.70;67.80;;;;;;4971681;28;20097;-81
2021/12/22 05:45:48;;;;;;;9.65;6.85;;;6.60;68.80;;;;;;4959420;28;20027;-83
2021/12/22 05:48:14;;;;;;;8.65;6.55;;;6.70;68.80;;;;;;4967039;28;20050;-83
2021/12/22 05:50:43;;;;;;;11.57;7.05;;;6.70;68.80;;;;;;4967126;28;20071;-83
2021/12/22 05:53:09;;;;;;;13.07;7.95;;;6.70;68.70;;;;;;4943613;28;20039;-83
2021/12/22 05:55:35;;;;;;;11.23;8.07;;;6.50;68.90;;;;;;4963825;28;20421;-83
2021/12/22 05:58:00;;;;;;;10.30;6.70;;;6.60;69.00;;;;;;4957151;28;20511;-83
2021/12/22 06:00:32;;;;;;;16.35;10.50;;;6.60;69.10;;;;;;4941387;28;20031;-83
2021/12/22 06:02:58;;;;;;;13.50;8.80;;;6.50;68.70;;;;;;4953540;28;20040;-82
2021/12/22 06:05:24;;;;;;;10.93;8.00;;;6.40;69.40;;;;;;4961348;28;20086;-81
2021/12/22 06:07:50;;;;;;;16.98;9.98;;;6.30;70.00;;;;;;4957965;28;20070;-82
2021/12/22 06:10:16;;;;;;;13.02;7.88;;;6.20;70.40;;;;;;4951140;28;20440;-82
2021/12/22 06:12:41;;;;;;;13.38;9.27;;;6.30;70.30;;;;;;4962158;28;20035;-82
2021/12/22 06:15:08;;;;;;;13.23;9.13;;;6.20;70.40;;;;;;4946652;28;20093;-84
2021/12/22 06:17:34;;;;;;;12.80;9.20;;;6.20;70.40;;;;;;4966023;28;20165;-84
2021/12/22 06:19:59;;;;;;;13.57;8.93;;;6.10;71.30;;;;;;4962084;28;20125;-83
2021/12/22 06:22:27;;;;;;;9.23;6.93;;;6.10;71.10;;;;;;4959288;28;20031;-84
2021/12/22 06:24:52;;;;;;;8.93;6.53;;;6.20;71.10;;;;;;4956540;28;20040;-82
2021/12/22 06:27:18;;;;;;;12.38;7.47;;;6.20;70.70;;;;;;4959356;28;20360;-84
2021/12/22 06:29:44;;;;;;;12.07;8.02;;;6.40;70.70;;;;;;4957232;28;20554;-92
2021/12/22 06:32:09;;;;;;;10.38;6.88;;;6.40;70.50;;;;;;4965245;28;20455;-83
2021/12/22 06:34:35;;;;;;;9.90;6.05;;;6.40;70.20;;;;;;4965294;28;20377;-83
2021/12/22 06:37:01;;;;;;;7.53;5.88;;;6.40;70.80;;;;;;4953117;28;20050;-84
2021/12/22 06:39:27;;;;;;;9.57;6.93;;;6.50;70.30;;;;;;4971053;28;20043;-84
2021/12/22 06:41:53;;;;;;;8.95;6.75;;;6.70;70.20;;;;;;4974141;28;20027;-83
2021/12/22 06:44:18;;;;;;;13.07;7.45;;;6.80;70.50;;;;;;4956020;28;20093;-80
2021/12/22 06:46:44;;;;;;;10.55;7.20;;;6.90;69.10;;;;;;4962732;28;20045;-83
2021/12/22 06:49:11;;;;;;;10.35;6.95;;;6.80;69.10;;;;;;4947419;28;20043;-82
2021/12/22 06:51:37;;;;;;;8.88;6.50;;;6.90;69.20;;;;;;4963068;28;20035;-82
2021/12/22 06:54:03;;;;;;;10.43;7.22;;;6.90;68.90;;;;;;4954038;28;20122;-84
2021/12/22 06:56:32;;;;;;;11.30;7.45;;;6.90;68.90;;;;;;4962163;28;20043;-84
2021/12/22 06:58:59;;;;;;;9.02;7.28;;;6.90;69.00;;;;;;4941496;29;20506;-82
2021/12/22 07:01:25;;;;;;;11.23;7.15;;;7.00;68.70;;;;;;4939320;28;20045;-82
2021/12/22 07:03:51;;;;;;;11.05;7.30;;;7.00;68.40;;;;;;4954889;28;20432;-81
2021/12/22 07:06:17;;;;;;;17.02;7.90;;;7.10;68.40;;;;;;4966243;28;20086;-82
2021/12/22 07:08:43;;;;;;;8.35;6.28;;;7.10;67.60;;;;;;4955123;28;20031;-84
2021/12/22 07:11:09;;;;;;;9.80;6.55;;;7.10;68.20;;;;;;4957637;28;20040;-85
2021/12/22 07:13:35;;;;;;;10.40;6.80;;;7.10;68.30;;;;;;4956604;28;20039;-82
2021/12/22 07:16:01;;;;;;;8.43;6.60;;;7.20;68.30;;;;;;4956044;28;20074;-82
2021/12/22 07:18:31;;;;;;;8.85;7.10;;;7.20;68.20;;;;;;4954563;28;20070;-83
2021/12/22 07:20:57;;;;;;;9.30;6.82;;;7.30;68.10;;;;;;4953274;28;20043;-83
2021/12/22 07:23:22;;;;;;;8.23;6.72;;;7.20;67.90;;;;;;4958219;28;20046;-82
2021/12/22 07:25:48;;;;;;;12.23;8.10;;;7.20;68.00;;;;;;4950796;28;20094;-82
2021/12/22 07:28:14;;;;;;;9.55;6.82;;;7.10;67.60;;;;;;4936442;29;20035;-83
2021/12/22 07:30:40;;;;;;;10.38;7.32;;;7.00;68.20;;;;;;4955298;28;20062;-82
2021/12/22 07:33:06;;;;;;;11.27;6.70;;;6.90;68.50;;;;;;4959922;28;20468;-86
2021/12/22 07:35:45;;;;;;;9.30;6.63;;;6.80;68.70;;;;;;4946024;28;20050;-86
2021/12/22 07:38:23;;;;;;;11.75;6.90;;;6.80;68.80;;;;;;4962453;28;20115;-84
2021/12/22 07:40:50;;;;;;;8.98;6.50;;;6.80;68.80;;;;;;4930423;29;20178;-85
2021/12/22 07:43:16;;;;;;;11.93;6.55;;;6.90;68.90;;;;;;4938524;29;20395;-84
2021/12/22 07:45:50;;;;;;;10.68;7.00;;;7.00;69.00;;;;;;4938605;29;20122;-83
2021/12/22 07:48:19;;;;;;;8.93;6.45;;;7.00;68.60;;;;;;4955538;28;20681;-84
2021/12/22 07:50:46;;;;;;;9.85;6.20;;;7.10;68.60;;;;;;4958163;28;20035;-87
2021/12/22 07:53:11;;;;;;;9.02;6.97;;;7.10;68.70;;;;;;4956188;28;20067;-87
2021/12/22 07:55:37;;;;;;;9.70;6.70;;;7.20;68.40;;;;;;4939006;29;20050;-87
2021/12/22 07:58:03;;;;;;;8.68;6.45;;;7.10;68.00;;;;;;4938608;29;20043;-87
2021/12/22 08:00:29;;;;;;;10.00;6.85;;;7.20;68.30;;;;;;4939246;29;20043;-87
2021/12/22 08:02:55;;;;;;;11.23;7.45;;;7.20;68.10;;;;;;4956576;28;20118;-87
2021/12/22 08:05:21;;;;;;;9.18;6.70;;;7.20;68.10;;;;;;4955400;28;20032;-87
2021/12/22 08:07:47;;;;;;;10.27;6.70;;;7.20;68.20;;;;;;4939000;29;20032;-87
2021/12/22 08:10:13;;;;;;;9.68;6.68;;;7.30;68.30;;;;;;4938274;29;20091;-86
2021/12/22 08:12:39;;;;;;;12.65;6.90;;;7.30;68.20;;;;;;4956346;28;20051;-86
2021/12/22 08:15:06;;;;;;;10.73;6.72;;;7.30;67.60;;;;;;4938068;29;20035;-87
2021/12/22 08:17:32;;;;;;;9.38;6.63;;;7.30;67.90;;;;;;4955437;28;20089;-86
2021/12/22 08:19:59;;;;;;;108.78;73.60;;;7.40;67.80;;;;;;4955426;28;20047;-86
2021/12/22 08:22:25;;;;;;;33.42;24.48;;;7.40;67.70;;;;;;4936254;28;20126;-84
2021/12/22 08:24:51;;;;;;;15.25;10.48;;;7.40;67.60;;;;;;4950849;28;20527;-85
2021/12/22 08:27:38;;;;;;;12.40;8.13;;;7.40;67.70;;;;;;4953598;28;20039;-87
2021/12/22 08:30:27;;;;;;;10.32;7.03;;;7.50;67.60;;;;;;4946564;28;20035;-87
2021/12/22 08:32:55;;;;;;;10.85;6.25;;;7.50;67.20;;;;;;4940846;29;20039;-83
2021/12/22 08:35:24;;;;;;;11.32;7.22;;;7.50;66.90;;;;;;4935346;28;20048;-83
2021/12/22 08:40:34;;;;;;;9.55;6.78;;;7.60;67.30;;;;;;4942932;29;20089;-82
2021/12/22 08:43:00;;;;;;;9.75;6.80;;;7.60;67.20;;;;;;4955596;28;20126;-83
2021/12/22 08:45:26;;;;;;;10.88;7.05;;;7.70;67.10;;;;;;4939404;29;20046;-82
2021/12/22 08:47:52;;;;;;;10.48;7.05;;;7.70;67.20;;;;;;4957786;28;20031;-84
2021/12/22 08:50:19;;;;;;;8.57;6.43;;;7.70;66.80;;;;;;4971775;28;20033;-83
2021/12/22 08:52:45;;;;;;;11.43;7.30;;;7.80;66.90;;;;;;4959034;28;20483;-84
2021/12/22 08:55:13;;;;;;;9.43;7.43;;;7.80;66.90;;;;;;4959203;28;20495;-85
2021/12/22 08:57:39;;;;;;;14.15;7.10;;;7.80;67.00;;;;;;4945956;28;20398;-84
2021/12/22 09:00:09;;;;;;;12.55;7.32;;;7.90;67.00;;;;;;4972133;28;20130;-84
2021/12/22 09:02:35;;;;;;;11.32;7.28;;;8.00;66.40;;;;;;4940293;28;20052;-85
2021/12/22 09:05:01;;;;;;;10.35;7.18;;;8.00;66.70;;;;;;4959374;28;20114;-85
2021/12/22 09:07:27;;;;;;;10.50;6.95;;;8.00;66.40;;;;;;4960958;28;20126;-86
2021/12/22 09:09:52;;;;;;;11.18;6.57;;;8.10;66.40;;;;;;4971037;28;20031;-86
2021/12/22 09:12:23;;;;;;;9.00;6.95;;;8.10;66.40;;;;;;4954973;28;20062;-86
2021/12/22 09:14:48;;;;;;;13.65;8.48;;;8.10;66.20;;;;;;4958952;28;20043;-83
2021/12/22 09:17:14;;;;;;;14.32;7.47;;;8.10;65.50;;;;;;4972115;28;20057;-83
2021/12/22 09:19:40;;;;;;;9.50;6.85;;;8.10;65.80;;;;;;4966174;28;20046;-83
2021/12/22 09:22:06;;;;;;;9.98;7.28;;;8.00;65.60;;;;;;4976842;28;20086;-83
2021/12/22 09:24:31;;;;;;;12.05;8.90;;;8.00;66.40;;;;;;4977833;28;20027;-83
2021/12/22 09:26:57;;;;;;;12.25;8.93;;;7.80;66.00;;;;;;4948522;28;20102;-83
2021/12/22 09:29:26;;;;;;;10.10;7.60;;;7.80;66.40;;;;;;4958527;29;20043;-88
2021/12/22 09:31:52;;;;;;;9.98;7.30;;;7.80;66.80;;;;;;4958125;28;20023;-88
2021/12/22 09:34:17;;;;;;;12.85;6.88;;;7.90;66.60;;;;;;4956025;28;20053;-88
2021/12/22 09:36:43;;;;;;;10.10;7.82;;;7.90;66.40;;;;;;4966601;28;20039;-83
2021/12/22 09:39:09;;;;;;;10.45;7.47;;;7.90;66.30;;;;;;4956807;28;20114;-82
2021/12/22 09:41:35;;;;;;;9.85;7.10;;;7.90;66.50;;;;;;4939370;28;20036;-83
2021/12/22 09:44:01;;;;;;;10.48;7.57;;;8.00;66.40;;;;;;4939235;29;20051;-81
2021/12/22 09:46:27;;;;;;;8.98;6.40;;;8.10;66.40;;;;;;4971248;28;20036;-90
2021/12/22 09:49:00;;;;;;;11.55;7.68;;;8.20;69.10;;;;;;4977329;28;20041;-87
2021/12/22 09:53:54;;;;;;;9.23;7.68;;;8.30;66.30;;;;;;4977989;28;20062;-89
2021/12/22 09:56:24;;;;;;;9.13;6.90;;;8.30;66.30;;;;;;4956049;28;20472;-85
2021/12/22 09:58:51;;;;;;;13.32;8.57;;;8.40;66.50;;;;;;4947137;28;20031;-87
2021/12/22 10:01:22;;;;;;;12.60;8.20;;;8.50;66.70;;;;;;4950630;28;20138;-85
2021/12/22 10:03:58;;;;;;;13.73;8.55;;;8.60;65.90;;;;;;4956452;28;20486;-85
2021/12/22 10:06:26;;;;;;;15.38;9.43;;;8.70;66.00;;;;;;4957022;28;20082;-85
2021/12/22 10:08:57;;;;;;;12.15;8.20;;;8.70;65.20;;;;;;4969803;28;20539;-85
2021/12/22 10:11:23;;;;;;;13.68;8.02;;;8.70;65.40;;;;;;4960010;28;20046;-85
2021/12/22 10:13:49;;;;;;;12.07;8.20;;;8.70;65.80;;;;;;4980001;28;20054;-85
2021/12/22 10:16:21;;;;;;;10.98;8.00;;;8.80;65.60;;;;;;4961073;28;20035;-85
2021/12/22 10:18:47;;;;;;;14.05;9.38;;;8.80;65.70;;;;;;4959062;28;20164;-84
2021/12/22 10:21:21;;;;;;;13.88;10.40;;;8.80;64.60;;;;;;4967716;28;20072;-85
2021/12/22 10:23:50;;;;;;;16.15;9.73;;;8.80;64.80;;;;;;4956897;28;20058;-84
2021/12/22 10:26:18;;;;;;;11.48;8.32;;;8.80;64.70;;;;;;4969500;28;20035;-84
2021/12/22 10:29:13;;;;;;;10.07;7.85;;;8.90;65.20;;;;;;4957186;28;20125;-85
2021/12/22 10:31:42;;;;;;;11.60;7.82;;;8.90;65.10;;;;;;4959867;28;20055;-84
2021/12/22 10:34:10;;;;;;;11.35;7.68;;;9.10;65.00;;;;;;4966477;28;20063;-84
2021/12/22 10:36:53;;;;;;;16.27;11.73;;;9.20;64.90;;;;;;4957280;28;20118;-84
2021/12/22 10:39:31;;;;;;;14.50;9.70;;;9.00;64.20;;;;;;4962242;28;20038;-84
2021/12/22 10:42:08;;;;;;;11.73;8.63;;;9.10;65.00;;;;;;4964703;28;20070;-85
2021/12/22 10:44:39;;;;;;;12.07;9.20;;;9.20;65.00;;;;;;4955367;28;20039;-84
2021/12/22 10:47:22;;;;;;;12.10;8.43;;;9.30;64.60;;;;;;4967885;28;20126;-83
2021/12/22 10:50:00;;;;;;;16.88;11.77;;;9.40;64.70;;;;;;4964527;28;20464;-83
2021/12/22 10:52:26;;;;;;;11.52;9.45;;;9.30;63.40;;;;;;4952876;28;20043;-82
2021/12/22 10:55:07;;;;;;;14.05;12.18;;;9.30;64.40;;;;;;4956829;28;20043;-84
2021/12/22 10:57:36;;;;;;;13.25;9.32;;;9.20;63.70;;;;;;4966675;28;20045;-85
2021/12/22 11:00:14;;;;;;;11.63;8.68;;;9.30;64.50;;;;;;4964474;28;20075;-83
2021/12/22 11:02:44;;;;;;;10.15;7.95;;;9.40;64.70;;;;;;4968615;28;20043;-83
2021/12/22 11:05:19;;;;;;;13.77;9.07;;;9.70;64.70;;;;;;4969876;28;20031;-81
2021/12/22 11:07:45;;;;;;;13.30;9.25;;;10.00;64.40;;;;;;4955935;28;20039;-82
2021/12/22 11:10:28;;;;;;;12.32;8.27;;;10.30;63.60;;;;;;4958751;28;20376;-82
2021/12/22 11:13:05;;;;;;;12.88;9.25;;;10.60;63.10;;;;;;4958569;28;20100;-81
2021/12/22 11:15:43;;;;;;;11.35;9.32;;;10.60;62.10;;;;;;4958645;28;20042;-84
2021/12/22 11:18:36;;;;;;;10.10;8.10;;;10.90;62.30;;;;;;4956783;28;20101;-85
2021/12/22 11:21:12;;;;;;;13.20;8.65;;;11.20;62.10;;;;;;4934855;28;20038;-84
2021/12/22 11:23:39;;;;;;;9.93;8.27;;;11.40;60.90;;;;;;4964543;28;20047;-84
2021/12/22 11:26:05;;;;;;;12.13;7.97;;;11.50;59.70;;;;;;4964972;28;20099;-85
2021/12/22 11:28:34;;;;;;;10.75;8.75;;;11.70;60.10;;;;;;4962418;28;20043;-84
2021/12/22 11:31:02;;;;;;;13.35;9.82;;;11.90;61.10;;;;;;4955614;28;20031;-84
2021/12/22 11:33:30;;;;;;;11.23;8.52;;;12.20;57.20;;;;;;4962353;28;20045;-84
2021/12/22 11:35:57;;;;;;;12.25;9.07;;;12.40;60.10;;;;;;4954658;28;20082;-84
2021/12/22 11:38:26;;;;;;;8.75;7.60;;;12.70;58.90;;;;;;4958530;28;20046;-84
2021/12/22 11:41:06;;;;;;;11.82;9.13;;;13.00;57.70;;;;;;4968422;28;20028;-84
2021/12/22 11:43:34;;;;;;;;;;;13.40;55.30;;;;;;4955283;28;20408;-81
2021/12/22 11:46:01;;;;;;;10.50;7.85;;;14.00;55.20;;;;;;4954569;28;19906;-81
2021/12/22 11:48:27;;;;;;;11.48;8.48;;;14.70;54.10;;;;;;4937722;29;20039;-81
2021/12/22 11:50:52;;;;;;;11.50;8.10;;;15.60;50.90;;;;;;4955022;29;20086;-81
2021/12/22 11:53:45;;;;;;;9.57;7.90;;;16.50;49.30;;;;;;4957848;28;20032;-82
2021/12/22 11:56:34;;;;;;;10.68;8.30;;;17.40;47.30;;;;;;4954409;28;20558;-85
2021/12/22 11:58:59;;;;;;;10.05;7.90;;;18.30;44.90;;;;;;4955613;28;20050;-83
2021/12/22 12:01:25;;;;;;;13.73;9.38;;;18.90;42.60;;;;;;4933275;28;20368;-83
2021/12/22 12:04:14;;;;;;;9.45;8.45;;;19.30;41.50;;;;;;4965675;28;20043;-83
2021/12/22 12:06:50;;;;;;;11.55;8.48;;;19.80;39.70;;;;;;4959837;28;20031;-85
2021/12/22 12:09:22;;;;;;;10.70;8.40;;;20.20;39.30;;;;;;4955914;28;20122;-84
2021/12/22 12:11:52;;;;;;;11.70;9.90;;;20.40;37.70;;;;;;4958207;28;20480;-83
2021/12/22 12:23:29;;;;;;;9.85;8.13;;;20.10;37.50;;;;;;4968391;28;20042;-83
2021/12/22 12:25:56;;;;;;;10.10;8.60;;;20.20;37.40;;;;;;4953946;28;20091;-83
2021/12/22 12:28:24;;;;;;;9.23;8.18;;;20.20;37.30;;;;;;4956582;28;20162;-83
2021/12/22 12:31:00;;;;;;;10.32;8.60;;;20.10;37.00;;;;;;4952935;28;20094;-83
2021/12/22 12:33:27;;;;;;;13.70;10.07;;;19.80;37.20;;;;;;4955829;28;20071;-86
2021/12/22 12:36:15;;;;;;;10.70;8.38;;;19.60;37.00;;;;;;4937380;28;20046;-82
2021/12/22 12:38:41;;;;;;;10.90;8.60;;;19.40;38.10;;;;;;4958555;28;20041;-82
2021/12/22 12:41:11;;;;;;;10.63;7.88;;;19.10;38.20;;;;;;4959009;28;20038;-82
2021/12/22 12:46:44;;;;;;;10.82;8.18;;;18.60;38.00;;;;;;4957033;28;20120;-82
2021/12/22 12:49:13;;;;;;;11.65;8.40;;;18.40;39.60;;;;;;4953473;28;20034;-82
2021/12/22 12:51:49;;;;;;;7.85;6.88;;;18.20;39.80;;;;;;4968181;28;20174;-82
2021/12/22 12:54:18;;;;;;;10.00;8.02;;;18.00;39.80;;;;;;4963285;28;20042;-81
2021/12/22 12:56:45;;;;;;;10.95;8.55;;;18.00;40.10;;;;;;4961697;28;20039;-83
2021/12/22 12:59:13;;;;;;;9.27;8.20;;;18.10;39.80;;;;;;4962783;28;20043;-82
2021/12/22 13:01:58;;;;;;;8.73;7.75;;;18.30;39.80;;;;;;4952437;28;20110;-82
2021/12/22 13:04:29;;;;;;;9.38;7.35;;;18.40;39.30;;;;;;4934461;29;20053;-82
2021/12/22 13:07:05;;;;;;;13.13;8.15;;;18.30;39.50;;;;;;4956123;28;20035;-82
2021/12/22 13:09:49;;;;;;;9.70;7.93;;;18.30;39.50;;;;;;4956903;28;20043;-82
2021/12/22 13:17:49;;;;;;;9.45;7.75;;;18.60;39.20;;;;;;4959291;28;20050;-82
2021/12/22 13:20:27;;;;;;;7.93;7.15;;;18.50;37.90;;;;;;4956489;28;20122;-82
2021/12/22 13:22:55;;;;;;;9.48;7.70;;;18.10;38.90;;;;;;4938285;29;20055;-82
2021/12/22 13:25:26;;;;;;;9.75;8.65;;;17.80;39.60;;;;;;4955240;28;20035;-82
2021/12/22 13:28:04;;;;;;;9.35;7.35;;;17.50;40.20;;;;;;4937128;29;20063;-82
2021/12/22 13:30:39;;;;;;;10.15;7.75;;;17.30;40.60;;;;;;4960881;28;20038;-81